Time;durP1;ratioP1;P1;durP2;ratioP2;P2;SDS_P1;SDS_P2;PMS_P1;PMS_P2;Temp;Humidity;BMP_temperature;BMP_pressure;BME280_temperature;BME280_humidity;BME280_pressure;Samples;Min_cycle;Max_cycle;Signal;HPM_P1;HPM_P2
2021/06/04 04:01:27;;;;;;;12.53;11.33;;;18.20;99.90;;;;;;5518799;23;20510;-64
2021/06/04 04:03:54;;;;;;;15.70;11.57;;;18.30;99.90;;;;;;4976449;28;20442;-64
2021/06/04 04:06:20;;;;;;;12.57;11.50;;;18.30;99.90;;;;;;4976560;28;20455;-63
2021/06/04 04:08:46;;;;;;;11.63;10.50;;;18.30;99.90;;;;;;4976599;28;20501;-64
2021/06/04 04:11:13;;;;;;;13.13;12.03;;;18.30;99.90;;;;;;4976684;28;20637;-63
2021/06/04 04:13:39;;;;;;;13.13;12.03;;;18.20;99.90;;;;;;4976633;28;20458;-63
2021/06/04 04:16:06;;;;;;;13.30;12.00;;;18.10;99.90;;;;;;4976404;28;20455;-64
2021/06/04 04:18:34;;;;;;;12.07;11.07;;;18.00;99.90;;;;;;4976178;28;20478;-63
2021/06/04 04:21:04;;;;;;;12.00;10.90;;;18.10;99.90;;;;;;4975900;28;20569;-63
2021/06/04 04:23:35;;;;;;;13.83;12.80;;;18.20;99.90;;;;;;4975991;28;20442;-63
2021/06/04 04:26:02;;;;;;;13.80;12.40;;;18.30;99.90;;;;;;4975991;28;20466;-63
2021/06/04 04:28:30;;;;;;;12.10;11.07;;;18.40;99.90;;;;;;4976022;28;20451;-64
2021/06/04 04:30:57;;;;;;;12.60;11.57;;;18.40;99.90;;;;;;4975746;28;20940;-63
2021/06/04 04:33:24;;;;;;;12.67;11.57;;;18.40;99.90;;;;;;4976266;28;20459;-64
2021/06/04 04:35:52;;;;;;;13.97;12.80;;;18.50;99.90;;;;;;4976099;28;20458;-64
2021/06/04 04:38:21;;;;;;;12.40;11.50;;;18.50;99.90;;;;;;4975926;28;20557;-64
2021/06/04 04:40:49;;;;;;;12.40;11.50;;;18.60;99.90;;;;;;4975992;28;20485;-63
2021/06/04 04:43:15;;;;;;;11.50;10.70;;;18.60;99.90;;;;;;4976588;28;20462;-64
2021/06/04 04:45:42;;;;;;;12.00;10.97;;;18.70;99.90;;;;;;4975745;28;20455;-63
2021/06/04 04:48:09;;;;;;;12.53;11.33;;;18.80;99.90;;;;;;4975916;28;20477;-63
2021/06/04 04:50:37;;;;;;;11.50;10.70;;;18.90;99.90;;;;;;4975395;28;20883;-63
2021/06/04 04:53:06;;;;;;;12.53;11.53;;;19.00;99.90;;;;;;4975598;28;20473;-63
2021/06/04 04:55:36;;;;;;;12.20;9.97;;;19.10;99.90;;;;;;4975771;28;20501;-64
2021/06/04 04:58:02;;;;;;;14.77;12.00;;;19.30;99.90;;;;;;4976224;28;20489;-64
2021/06/04 05:00:29;;;;;;;11.70;10.80;;;19.40;99.90;;;;;;4975396;28;20949;-64
2021/06/04 05:02:56;;;;;;;11.03;10.23;;;19.50;99.90;;;;;;4975763;28;20450;-65
2021/06/04 05:05:26;;;;;;;11.73;10.83;;;19.60;99.90;;;;;;4975427;28;20522;-63
2021/06/04 05:07:52;;;;;;;11.73;10.73;;;19.70;99.90;;;;;;4975200;28;20945;-64
2021/06/04 05:10:20;;;;;;;11.93;11.03;;;19.70;99.90;;;;;;4975415;28;20968;-64
2021/06/04 05:12:46;;;;;;;12.73;11.73;;;19.60;99.90;;;;;;4975551;28;20466;-64
2021/06/04 05:15:15;;;;;;;13.10;12.00;;;19.70;99.90;;;;;;4975479;28;20555;-64
2021/06/04 05:17:42;;;;;;;12.00;10.90;;;19.50;99.90;;;;;;4973703;28;20467;-64
2021/06/04 05:20:09;;;;;;;11.10;10.30;;;19.60;99.90;;;;;;4976657;28;20466;-66
2021/06/04 05:22:36;;;;;;;11.07;10.13;;;19.70;99.90;;;;;;4984657;28;20515;-64
2021/06/04 05:25:04;;;;;;;13.07;11.87;;;19.80;99.90;;;;;;4979739;28;20929;-63
2021/06/04 05:27:31;;;;;;;11.57;10.57;;;19.80;99.90;;;;;;4975134;28;20457;-63
2021/06/04 05:29:57;;;;;;;14.40;12.13;;;19.70;99.90;;;;;;4974980;28;20945;-65
2021/06/04 05:32:24;;;;;;;13.10;12.00;;;19.50;99.90;;;;;;4975336;28;20475;-64
2021/06/04 05:34:50;;;;;;;13.80;12.60;;;19.50;99.90;;;;;;4975578;28;20442;-64
2021/06/04 05:37:17;;;;;;;14.17;12.87;;;19.40;99.90;;;;;;4975540;28;20475;-63
2021/06/04 05:39:43;;;;;;;12.73;11.73;;;19.20;99.90;;;;;;4975204;28;20461;-62
2021/06/04 05:42:10;;;;;;;13.23;12.10;;;19.10;99.90;;;;;;4974920;28;20993;-63
2021/06/04 05:44:38;;;;;;;14.27;12.80;;;19.20;99.90;;;;;;4974915;28;20458;-62
2021/06/04 05:47:09;;;;;;;12.87;11.90;;;19.20;99.90;;;;;;4975090;28;20450;-63
2021/06/04 05:49:35;;;;;;;14.30;13.07;;;19.30;99.90;;;;;;4974887;28;20443;-62
2021/06/04 05:52:08;;;;;;;13.23;12.33;;;19.20;99.90;;;;;;4975238;28;20876;-62
2021/06/04 05:54:35;;;;;;;14.20;12.70;;;19.30;99.90;;;;;;4974963;28;20446;-64
2021/06/04 05:57:02;;;;;;;14.27;13.00;;;19.40;99.90;;;;;;4975285;28;20463;-64
2021/06/04 05:59:28;;;;;;;13.73;12.63;;;19.40;99.90;;;;;;4974401;28;20945;-63
2021/06/04 06:01:56;;;;;;;14.37;13.30;;;19.50;99.90;;;;;;4974377;28;20855;-63
2021/06/04 06:04:22;;;;;;;14.97;13.47;;;19.50;99.90;;;;;;4974713;28;20455;-63
2021/06/04 06:06:48;;;;;;;15.20;14.00;;;19.50;99.90;;;;;;4974520;28;20454;-63
2021/06/04 06:09:14;;;;;;;14.37;13.23;;;19.40;99.90;;;;;;4978650;28;20447;-63
2021/06/04 06:11:40;;;;;;;14.67;13.37;;;19.50;99.90;;;;;;4978428;28;20499;-64
2021/06/04 06:14:09;;;;;;;14.30;13.10;;;19.60;99.90;;;;;;4978459;28;20791;-65
2021/06/04 06:16:35;;;;;;;14.10;13.00;;;19.60;99.90;;;;;;4978479;28;20553;-64
2021/06/04 06:19:04;;;;;;;15.73;14.43;;;19.60;99.90;;;;;;4979218;28;20458;-67
2021/06/04 06:21:31;;;;;;;15.20;13.60;;;19.60;99.90;;;;;;4978305;28;20483;-65
2021/06/04 06:23:57;;;;;;;15.73;14.23;;;19.60;99.90;;;;;;4978157;28;20460;-63
2021/06/04 06:26:28;;;;;;;14.83;13.53;;;19.80;99.90;;;;;;4978005;28;20976;-64
2021/06/04 06:28:56;;;;;;;14.33;12.87;;;20.00;99.90;;;;;;4978607;28;20488;-63
2021/06/04 06:31:24;;;;;;;12.70;11.50;;;20.10;99.90;;;;;;4978148;28;20481;-64
2021/06/04 06:33:52;;;;;;;13.53;12.33;;;20.20;99.90;;;;;;4978485;28;20458;-64
2021/06/04 06:36:26;;;;;;;14.30;12.93;;;20.40;99.90;;;;;;4977980;28;20459;-64
2021/06/04 06:38:52;;;;;;;12.97;11.87;;;20.50;99.90;;;;;;4977961;28;20867;-65
2021/06/04 06:41:19;;;;;;;13.60;12.37;;;20.50;99.90;;;;;;4978026;28;20570;-65
2021/06/04 06:43:47;;;;;;;12.53;11.70;;;20.60;99.90;;;;;;4978261;28;20509;-64
2021/06/04 06:46:15;;;;;;;13.67;12.50;;;20.80;99.90;;;;;;4977713;28;20454;-64
2021/06/04 06:48:42;;;;;;;13.37;12.10;;;20.90;99.90;;;;;;4977309;28;21003;-64
2021/06/04 06:51:09;;;;;;;12.03;10.83;;;21.00;99.90;;;;;;4977266;28;20844;-64
2021/06/04 06:53:38;;;;;;;12.10;10.93;;;21.20;99.90;;;;;;4977720;28;20462;-64
2021/06/04 06:56:05;;;;;;;11.33;10.57;;;21.50;99.90;;;;;;4977598;28;20455;-64
2021/06/04 06:58:31;;;;;;;10.83;9.93;;;21.70;99.90;;;;;;4977111;28;20475;-65
2021/06/04 07:00:58;;;;;;;10.57;9.53;;;21.90;99.90;;;;;;4977236;28;20482;-65
2021/06/04 07:03:29;;;;;;;13.00;11.90;;;22.00;99.90;;;;;;4977729;28;20458;-65
2021/06/04 07:05:57;;;;;;;11.80;10.57;;;22.00;99.90;;;;;;4977579;28;20538;-65
2021/06/04 07:08:23;;;;;;;10.40;9.60;;;22.10;99.90;;;;;;4977375;28;20454;-65
2021/06/04 07:10:51;;;;;;;11.60;10.50;;;22.00;99.90;;;;;;4977201;28;20969;-65
2021/06/04 07:13:25;;;;;;;12.30;11.13;;;22.10;99.90;;;;;;4977048;28;20953;-64
2021/06/04 07:15:52;;;;;;;10.70;9.90;;;22.10;99.90;;;;;;4977353;28;20479;-65
2021/06/04 07:18:18;;;;;;;12.30;11.30;;;22.10;99.90;;;;;;4977154;28;20473;-65
2021/06/04 07:20:44;;;;;;;12.80;9.70;;;22.10;99.90;;;;;;4977060;28;20479;-65
2021/06/04 07:23:11;;;;;;;10.93;10.03;;;22.10;99.90;;;;;;4977274;28;20458;-65
2021/06/04 07:25:41;;;;;;;10.70;9.80;;;22.20;99.90;;;;;;4977018;28;20450;-65
2021/06/04 07:28:10;;;;;;;11.00;10.10;;;22.20;99.90;;;;;;4977044;28;20454;-65
2021/06/04 07:30:40;;;;;;;11.83;10.93;;;22.10;99.90;;;;;;4977149;28;20471;-65
2021/06/04 07:33:11;;;;;;;11.50;10.60;;;21.90;99.90;;;;;;4976995;28;20560;-64
2021/06/04 07:35:38;;;;;;;12.30;11.10;;;21.80;99.90;;;;;;4977276;28;20438;-66
2021/06/04 07:38:05;;;;;;;11.50;10.60;;;21.80;99.90;;;;;;4976518;28;20997;-65
2021/06/04 07:40:33;;;;;;;12.53;11.53;;;21.90;99.90;;;;;;4977136;28;20470;-64
2021/06/04 07:43:02;;;;;;;12.50;11.50;;;21.90;99.90;;;;;;4976773;28;21025;-64
2021/06/04 07:45:34;;;;;;;12.20;11.30;;;21.80;99.90;;;;;;4976890;28;20458;-64
2021/06/04 07:48:01;;;;;;;11.43;10.60;;;21.90;99.90;;;;;;4976769;28;20461;-63
2021/06/04 07:50:28;;;;;;;12.40;11.50;;;21.90;99.90;;;;;;4977322;28;20525;-63
2021/06/04 07:52:54;;;;;;;11.67;10.77;;;21.90;99.90;;;;;;4977134;28;20458;-63
2021/06/04 07:55:21;;;;;;;12.37;11.23;;;22.00;99.90;;;;;;4977751;28;20972;-64
2021/06/04 07:57:47;;;;;;;12.50;11.57;;;22.20;99.90;;;;;;4978221;28;20474;-63
2021/06/04 08:00:21;;;;;;;13.43;12.30;;;22.20;99.90;;;;;;4978125;28;20454;-65
2021/06/04 08:02:48;;;;;;;12.10;11.13;;;22.30;99.90;;;;;;4977789;28;20442;-65
2021/06/04 08:05:16;;;;;;;13.27;12.13;;;22.40;99.90;;;;;;4977162;28;20463;-63
2021/06/04 08:07:43;;;;;;;12.70;11.70;;;22.40;99.90;;;;;;4976862;28;20527;-64
2021/06/04 08:10:11;;;;;;;12.47;11.43;;;22.40;99.90;;;;;;4976597;28;20458;-63
2021/06/04 08:12:38;;;;;;;13.33;11.97;;;22.60;99.90;;;;;;4976203;28;20475;-63
2021/06/04 08:15:08;;;;;;;12.00;11.10;;;22.80;99.90;;;;;;4976407;28;20442;-63
2021/06/04 08:17:36;;;;;;;11.60;10.60;;;23.20;99.90;;;;;;4975874;28;20972;-64
2021/06/04 08:20:07;;;;;;;11.53;10.63;;;23.60;99.90;;;;;;4976079;28;20439;-63
2021/06/04 08:22:33;;;;;;;9.73;9.03;;;24.10;99.90;;;;;;4975638;28;20989;-64
2021/06/04 08:24:59;;;;;;;10.30;9.43;;;24.80;99.90;;;;;;4975968;28;20459;-63
2021/06/04 08:27:26;;;;;;;10.77;8.57;;;25.30;99.90;;;;;;4976048;28;20446;-63
2021/06/04 08:29:54;;;;;;;10.97;10.00;;;25.80;99.90;;;;;;4975782;28;20467;-62
2021/06/04 08:32:21;;;;;;;9.13;8.23;;;26.00;99.90;;;;;;4975207;28;20537;-63
2021/06/04 08:34:48;;;;;;;11.43;7.17;;;26.40;99.90;;;;;;4976385;28;20443;-63
2021/06/04 08:37:16;;;;;;;6.97;6.40;;;26.80;99.90;;;;;;4978237;28;20509;-63
2021/06/04 08:39:44;;;;;;;6.47;5.90;;;26.80;99.90;;;;;;4978231;28;20533;-64
2021/06/04 08:42:30;;;;;;;5.57;5.23;;;27.60;99.90;;;;;;4977936;28;20470;-63
2021/06/04 08:45:21;;;;;;;5.73;5.23;;;28.40;99.90;;;;;;4975329;28;20559;-63
2021/06/04 08:47:54;;;;;;;5.70;5.40;;;28.60;99.90;;;;;;4975629;28;20439;-64
2021/06/04 08:50:30;;;;;;;5.90;4.73;;;29.80;99.90;;;;;;4975154;28;20902;-63
2021/06/04 08:53:01;;;;;;;5.57;5.17;;;30.70;99.90;;;;;;4975405;28;20443;-64
2021/06/04 08:55:37;;;;;;;5.27;4.77;;;31.60;99.90;;;;;;4975131;28;20438;-63
2021/06/04 08:58:17;;;;;;;5.77;5.27;;;32.00;99.90;;;;;;4975198;28;20462;-63
2021/06/04 09:00:51;;;;;;;7.30;4.80;;;32.10;97.90;;;;;;4975199;28;20536;-63
2021/06/04 09:03:22;;;;;;;4.07;3.77;;;32.30;98.00;;;;;;4975318;28;20449;-64
2021/06/04 09:05:52;;;;;;;3.80;3.60;;;31.80;98.80;;;;;;4974913;28;20450;-63
2021/06/04 09:08:26;;;;;;;4.47;4.10;;;31.30;98.00;;;;;;4975021;28;20435;-63
2021/06/04 09:10:56;;;;;;;7.47;4.07;;;32.00;97.90;;;;;;4975526;28;20480;-64
2021/06/04 09:13:26;;;;;;;4.47;4.07;;;32.00;94.20;;;;;;4975226;28;20443;-63
2021/06/04 09:15:58;;;;;;;5.40;5.00;;;32.90;95.00;;;;;;4974792;28;20485;-63
2021/06/04 09:18:29;;;;;;;7.00;6.50;;;33.30;95.20;;;;;;4975263;28;20470;-63
2021/06/04 09:20:58;;;;;;;6.40;5.90;;;32.90;96.60;;;;;;4974832;28;20469;-64
2021/06/04 09:23:29;;;;;;;7.80;5.70;;;33.40;95.30;;;;;;4975085;28;20512;-64
2021/06/04 09:25:56;;;;;;;5.07;4.77;;;33.80;95.40;;;;;;4974698;28;20449;-65
2021/06/04 09:28:33;;;;;;;5.73;5.27;;;34.10;93.20;;;;;;4974970;28;20454;-62
2021/06/04 09:31:17;;;;;;;6.53;5.27;;;33.60;92.20;;;;;;4974809;28;20469;-63
2021/06/04 09:33:45;;;;;;;5.23;4.47;;;33.80;92.00;;;;;;4974547;28;20493;-63
2021/06/04 09:36:14;;;;;;;5.20;4.80;;;33.30;91.30;;;;;;4974564;28;20952;-63
2021/06/04 09:38:45;;;;;;;5.50;5.20;;;33.20;92.20;;;;;;4974816;28;20477;-64
2021/06/04 09:41:20;;;;;;;8.73;4.47;;;33.40;91.60;;;;;;4974783;28;20595;-63
2021/06/04 09:43:48;;;;;;;4.97;3.63;;;33.70;92.10;;;;;;4978394;28;20442;-64
2021/06/04 09:46:26;;;;;;;4.07;3.73;;;33.70;88.00;;;;;;4980792;28;20541;-64
2021/06/04 09:48:55;;;;;;;8.93;3.70;;;34.40;86.00;;;;;;4979969;28;20510;-63
2021/06/04 09:51:25;;;;;;;4.63;3.43;;;34.80;84.30;;;;;;4978352;28;20996;-64
2021/06/04 09:53:54;;;;;;;4.83;4.43;;;36.10;82.80;;;;;;4978741;28;20549;-64
2021/06/04 09:56:28;;;;;;;4.67;3.70;;;36.70;80.20;;;;;;4978707;28;20458;-64
2021/06/04 09:58:57;;;;;;;3.63;3.30;;;35.70;74.90;;;;;;4978564;28;20469;-64
2021/06/04 10:01:26;;;;;;;4.00;3.80;;;35.70;75.40;;;;;;4978246;28;20488;-64
2021/06/04 10:03:57;;;;;;;4.27;3.87;;;36.10;76.70;;;;;;4978543;28;20458;-64
2021/06/04 10:06:32;;;;;;;4.80;4.07;;;35.90;78.40;;;;;;4978300;28;20442;-63
2021/06/04 10:09:05;;;;;;;4.47;4.13;;;35.30;81.20;;;;;;4978419;28;20494;-63
2021/06/04 10:11:47;;;;;;;5.87;4.13;;;34.80;77.90;;;;;;4978426;28;20482;-64
2021/06/04 10:14:22;;;;;;;3.60;3.30;;;34.60;80.90;;;;;;4978454;28;20473;-64
2021/06/04 10:17:14;;;;;;;4.70;3.20;;;34.90;83.10;;;;;;4978489;28;20496;-64
2021/06/04 10:19:43;;;;;;;8.30;5.30;;;35.90;79.00;;;;;;4978377;28;20453;-63
2021/06/04 10:22:22;;;;;;;6.37;5.70;;;36.60;75.10;;;;;;4978091;28;20478;-63
2021/06/04 10:24:53;;;;;;;3.97;3.57;;;36.80;73.00;;;;;;4978430;28;20512;-63
2021/06/04 10:27:36;;;;;;;7.17;3.23;;;36.50;73.10;;;;;;4978603;28;20438;-63
2021/06/04 10:30:09;;;;;;;4.60;4.20;;;36.40;73.20;;;;;;4978193;28;20438;-64
2021/06/04 10:32:40;;;;;;;5.70;4.07;;;35.10;75.90;;;;;;4977951;28;20557;-63
2021/06/04 10:35:14;;;;;;;5.43;3.97;;;34.90;75.20;;;;;;4977696;28;20853;-63
2021/06/04 10:37:45;;;;;;;4.20;2.93;;;35.50;72.20;;;;;;4978493;28;20969;-64
2021/06/04 10:40:21;;;;;;;3.90;3.10;;;35.40;73.30;;;;;;4978306;28;20434;-64
2021/06/04 10:43:16;;;;;;;3.13;2.93;;;36.10;74.90;;;;;;4978024;28;20438;-65
2021/06/04 10:45:48;;;;;;;3.43;3.23;;;36.50;73.20;;;;;;4965131;28;20457;-65
2021/06/04 10:48:30;;;;;;;3.50;3.30;;;36.50;69.50;;;;;;4977870;28;20439;-64
2021/06/04 10:51:09;;;;;;;3.30;3.10;;;36.00;71.10;;;;;;4977692;28;20469;-64
2021/06/04 10:53:44;;;;;;;4.70;3.00;;;35.70;70.10;;;;;;4976680;28;20809;-64
2021/06/04 10:56:17;;;;;;;3.40;3.10;;;35.90;73.20;;;;;;4977781;28;20442;-64
2021/06/04 10:58:49;;;;;;;5.50;3.57;;;36.90;68.80;;;;;;4977651;28;20469;-63
2021/06/04 11:01:18;;;;;;;5.37;3.77;;;36.80;65.10;;;;;;4977334;28;20482;-63
2021/06/04 11:03:54;;;;;;;4.00;2.97;;;36.60;67.30;;;;;;4977558;28;20458;-63
2021/06/04 11:06:25;;;;;;;3.73;3.43;;;36.90;66.90;;;;;;4977513;28;20442;-63
2021/06/04 11:09:10;;;;;;;3.43;3.20;;;36.30;64.70;;;;;;4977567;28;20454;-63
2021/06/04 11:11:57;;;;;;;3.80;3.50;;;36.40;63.00;;;;;;4977288;28;20512;-63
2021/06/04 11:14:49;;;;;;;3.63;3.37;;;35.40;64.90;;;;;;4977685;28;20442;-63
2021/06/04 11:17:41;;;;;;;6.23;3.93;;;34.40;69.30;;;;;;4977097;28;20442;-64
2021/06/04 11:20:12;;;;;;;3.90;3.63;;;32.90;72.20;;;;;;4974822;28;20869;-64
2021/06/04 11:23:02;;;;;;;4.20;3.90;;;32.10;75.20;;;;;;4977291;28;20502;-63
2021/06/04 11:25:50;;;;;;;4.37;3.97;;;31.20;79.30;;;;;;4977290;28;20525;-64
2021/06/04 11:28:26;;;;;;;6.20;3.80;;;31.00;80.40;;;;;;4977357;28;20445;-63
2021/06/04 11:30:56;;;;;;;4.00;3.70;;;30.50;83.60;;;;;;4977056;28;20479;-64
2021/06/04 11:33:24;;;;;;;5.30;4.77;;;30.20;83.70;;;;;;4976851;28;20455;-63
2021/06/04 11:35:55;;;;;;;4.70;3.80;;;30.00;86.10;;;;;;4977088;28;20454;-63
2021/06/04 11:38:29;;;;;;;5.33;4.10;;;29.90;85.40;;;;;;4976839;28;20566;-63
2021/06/04 11:41:06;;;;;;;4.80;4.40;;;29.70;85.30;;;;;;4976878;28;20473;-64
2021/06/04 11:43:37;;;;;;;5.07;4.60;;;29.50;88.30;;;;;;4976901;28;20435;-63
2021/06/04 11:46:21;;;;;;;7.53;4.90;;;29.30;90.30;;;;;;4976810;28;20498;-62
2021/06/04 11:49:03;;;;;;;4.73;4.43;;;28.90;91.30;;;;;;4975315;28;20457;-63
2021/06/04 11:51:37;;;;;;;5.03;4.60;;;28.70;90.40;;;;;;4976599;28;20481;-62
2021/06/04 11:54:21;;;;;;;4.67;4.30;;;28.40;94.20;;;;;;4976757;28;20486;-63
2021/06/04 11:56:54;;;;;;;6.40;4.27;;;28.20;93.40;;;;;;4976073;28;20925;-63
2021/06/04 11:59:50;;;;;;;5.80;4.67;;;28.00;92.30;;;;;;4976304;28;21097;-63
2021/06/04 12:02:48;;;;;;;5.30;4.90;;;27.70;94.30;;;;;;4976222;28;20486;-63
2021/06/04 12:05:31;;;;;;;11.20;6.17;;;26.40;99.90;;;;;;4916478;29;20450;-62
2021/06/04 12:08:33;;;;;;;5.80;4.33;;;23.80;99.90;;;;;;4958758;28;20533;-62
2021/06/04 12:11:28;;;;;;;4.13;3.67;;;22.30;99.90;;;;;;4975763;28;20482;-62
2021/06/04 12:14:16;;;;;;;4.77;3.10;;;21.10;99.90;;;;;;4976145;28;20458;-62
2021/06/04 12:16:44;;;;;;;6.00;4.70;;;20.40;99.90;;;;;;4975967;28;20450;-62
2021/06/04 12:19:31;;;;;;;7.03;4.73;;;20.00;99.90;;;;;;4975999;28;20483;-63
2021/06/04 12:22:08;;;;;;;13.97;5.00;;;19.80;99.90;;;;;;4975841;28;20470;-61
2021/06/04 12:24:56;;;;;;;7.20;5.60;;;19.70;99.90;;;;;;4976466;28;20438;-61
2021/06/04 12:27:57;;;;;;;10.37;5.37;;;19.60;99.90;;;;;;4975903;28;20443;-62
2021/06/04 12:30:47;;;;;;;6.90;4.50;;;19.60;99.90;;;;;;4975365;28;20469;-61
2021/06/04 12:33:35;;;;;;;4.63;4.17;;;19.70;99.90;;;;;;4975436;28;20919;-61
2021/06/04 12:36:02;;;;;;;7.10;5.70;;;19.80;99.90;;;;;;4975635;28;20449;-62
2021/06/04 12:38:34;;;;;;;6.97;6.37;;;19.90;99.90;;;;;;4976328;28;20815;-62
2021/06/04 12:41:02;;;;;;;8.60;5.13;;;20.00;99.90;;;;;;4976446;28;20565;-62
2021/06/04 12:43:31;;;;;;;4.93;4.43;;;20.10;99.90;;;;;;4976244;28;20934;-62
2021/06/04 12:46:03;;;;;;;4.07;3.67;;;20.10;99.90;;;;;;4975704;28;20457;-61
2021/06/04 12:48:33;;;;;;;7.37;4.80;;;20.20;99.90;;;;;;4975380;28;20435;-63
2021/06/04 12:51:13;;;;;;;5.23;3.93;;;20.20;99.90;;;;;;4975508;28;21051;-62
2021/06/04 12:53:41;;;;;;;13.00;4.57;;;20.10;99.90;;;;;;4975658;28;20782;-62
2021/06/04 12:56:16;;;;;;;6.40;4.30;;;19.90;99.90;;;;;;4975378;28;20957;-62
2021/06/04 12:58:44;;;;;;;10.50;5.23;;;19.90;99.90;;;;;;4975184;28;20999;-63
2021/06/04 13:01:15;;;;;;;9.43;5.23;;;19.90;99.90;;;;;;4975154;28;20586;-61
2021/06/04 13:03:45;;;;;;;8.73;5.40;;;20.00;99.90;;;;;;4975462;28;20498;-62
2021/06/04 13:06:16;;;;;;;6.80;6.10;;;20.10;99.90;;;;;;4975918;28;20497;-62
2021/06/04 13:08:47;;;;;;;8.40;6.70;;;20.20;99.90;;;;;;4975351;28;20439;-62
2021/06/04 13:11:29;;;;;;;9.40;7.43;;;20.30;99.90;;;;;;4975896;28;20537;-62
2021/06/04 13:13:56;;;;;;;11.83;6.40;;;20.50;99.90;;;;;;4975391;28;20439;-62
2021/06/04 13:16:25;;;;;;;6.63;5.77;;;20.50;99.90;;;;;;4975064;28;20443;-62
2021/06/04 13:18:56;;;;;;;7.13;5.93;;;20.70;99.90;;;;;;4974778;28;20924;-63
2021/06/04 13:21:24;;;;;;;10.20;5.90;;;20.70;99.90;;;;;;4975186;28;20474;-62
2021/06/04 13:24:02;;;;;;;5.20;4.90;;;20.80;99.90;;;;;;4975223;28;20526;-63
2021/06/04 13:26:32;;;;;;;8.40;6.10;;;21.00;99.90;;;;;;4975475;28;20562;-63
2021/06/04 13:29:04;;;;;;;7.63;6.83;;;21.00;99.90;;;;;;4975661;28;20443;-63
2021/06/04 13:31:34;;;;;;;7.20;6.00;;;21.10;99.90;;;;;;4974896;28;20479;-63
2021/06/04 13:34:08;;;;;;;5.83;5.37;;;21.20;99.90;;;;;;4975146;28;20497;-64
2021/06/04 13:36:35;;;;;;;6.67;5.90;;;21.30;99.90;;;;;;4974907;28;20443;-62
2021/06/04 13:39:07;;;;;;;6.30;5.70;;;21.40;99.90;;;;;;4974739;28;20486;-64
2021/06/04 13:41:38;;;;;;;8.00;7.30;;;21.40;99.90;;;;;;4975139;28;20478;-64
2021/06/04 13:44:07;;;;;;;8.03;7.20;;;21.50;99.90;;;;;;4974667;28;20909;-64
2021/06/04 13:46:37;;;;;;;8.50;7.10;;;21.60;99.90;;;;;;4974545;28;20463;-64
2021/06/04 13:49:21;;;;;;;9.20;8.00;;;21.60;99.90;;;;;;4975418;28;20443;-63
2021/06/04 13:51:55;;;;;;;8.80;6.60;;;21.70;99.90;;;;;;4974481;28;20844;-64
2021/06/04 13:54:24;;;;;;;8.53;6.90;;;21.80;99.90;;;;;;4974923;28;20471;-63
2021/06/04 13:56:50;;;;;;;6.40;5.80;;;22.00;99.90;;;;;;4981123;28;20466;-63
2021/06/04 13:59:32;;;;;;;10.93;6.80;;;22.10;99.90;;;;;;4978419;28;20482;-64
2021/06/04 14:02:32;;;;;;;9.83;6.37;;;22.30;99.90;;;;;;4977524;28;20490;-64
2021/06/04 14:05:14;;;;;;;7.53;6.37;;;22.40;99.90;;;;;;4978301;28;20439;-64
2021/06/04 14:07:44;;;;;;;7.60;6.60;;;22.50;99.90;;;;;;4976123;28;20972;-64
2021/06/04 14:10:20;;;;;;;7.00;5.83;;;22.60;99.90;;;;;;4974345;28;20434;-62
2021/06/04 14:12:46;;;;;;;8.20;6.43;;;22.60;99.90;;;;;;4974818;28;20438;-64
2021/06/04 14:15:41;;;;;;;7.57;6.77;;;22.70;99.90;;;;;;4975516;28;20454;-64
2021/06/04 14:18:34;;;;;;;7.50;6.80;;;22.60;99.90;;;;;;4974737;28;20474;-62
2021/06/04 14:21:39;;;;;;;8.70;7.93;;;22.70;99.90;;;;;;4974757;28;20478;-63
2021/06/04 14:24:23;;;;;;;8.63;7.87;;;22.70;99.90;;;;;;4975846;28;20984;-70
2021/06/04 14:26:52;;;;;;;8.07;7.27;;;22.70;99.90;;;;;;4977545;28;20439;-63
2021/06/04 14:29:25;;;;;;;8.60;7.80;;;22.70;99.90;;;;;;4981008;28;20454;-63
2021/06/04 14:31:54;;;;;;;8.50;7.70;;;22.80;99.90;;;;;;4982383;28;20497;-63
2021/06/04 14:34:26;;;;;;;10.30;8.80;;;22.80;99.90;;;;;;4979882;28;20458;-63
2021/06/04 14:36:53;;;;;;;10.90;9.93;;;22.90;99.90;;;;;;4978650;28;20932;-63
2021/06/04 14:39:40;;;;;;;9.70;8.67;;;22.90;99.90;;;;;;4978304;28;20498;-63
2021/06/04 14:42:09;;;;;;;12.40;9.70;;;22.90;99.90;;;;;;4977958;28;20524;-63
2021/06/04 14:44:35;;;;;;;11.80;10.80;;;22.80;99.90;;;;;;4977865;28;20513;-63
2021/06/04 14:47:13;;;;;;;12.40;11.30;;;22.70;99.90;;;;;;4977628;28;20509;-64
2021/06/04 14:49:40;;;;;;;14.73;10.67;;;22.70;99.90;;;;;;4977821;28;20447;-63
2021/06/04 14:52:06;;;;;;;9.70;8.80;;;22.70;99.90;;;;;;4977761;28;20470;-63
2021/06/04 14:54:33;;;;;;;10.73;9.83;;;22.70;99.90;;;;;;4977703;28;20458;-63
2021/06/04 14:57:01;;;;;;;12.63;11.33;;;22.70;99.90;;;;;;4977836;28;20456;-63
2021/06/04 14:59:29;;;;;;;11.47;10.50;;;22.70;99.90;;;;;;4977163;28;20485;-63
2021/06/04 15:01:55;;;;;;;13.90;12.50;;;22.70;99.90;;;;;;4977004;28;21047;-64
2021/06/04 15:04:21;;;;;;;12.23;11.27;;;22.70;99.90;;;;;;4977539;28;20458;-63
2021/06/04 15:06:47;;;;;;;14.43;13.00;;;22.70;99.90;;;;;;4977607;28;20490;-62
2021/06/04 15:09:14;;;;;;;14.00;12.30;;;22.60;99.90;;;;;;4977431;28;20855;-63
2021/06/04 15:11:40;;;;;;;11.93;10.97;;;22.60;99.90;;;;;;4977338;28;20474;-64
2021/06/04 15:14:08;;;;;;;14.80;12.87;;;22.80;99.90;;;;;;4977398;28;20462;-63
2021/06/04 15:16:35;;;;;;;14.03;11.60;;;22.90;99.90;;;;;;4977441;28;20465;-63
2021/06/04 15:19:01;;;;;;;12.67;11.37;;;23.10;99.90;;;;;;4976952;28;21001;-64
2021/06/04 15:21:29;;;;;;;11.87;10.77;;;23.10;99.90;;;;;;4977714;28;20973;-63
2021/06/04 15:23:56;;;;;;;12.97;11.47;;;23.10;99.90;;;;;;4977191;28;20459;-63
2021/06/04 15:26:23;;;;;;;12.07;10.87;;;23.30;99.90;;;;;;4976919;28;20455;-62
2021/06/04 15:28:50;;;;;;;9.87;9.17;;;23.20;99.90;;;;;;4976813;28;20505;-63
2021/06/04 15:31:20;;;;;;;15.40;11.23;;;23.20;99.90;;;;;;4976954;28;20474;-63
2021/06/04 15:33:47;;;;;;;11.27;10.17;;;23.10;99.90;;;;;;4977321;28;20541;-63
2021/06/04 15:36:14;;;;;;;12.77;11.77;;;23.20;99.90;;;;;;4976994;28;20447;-63
2021/06/04 15:38:40;;;;;;;14.77;13.40;;;23.10;99.90;;;;;;4976798;28;20505;-63
2021/06/04 15:41:07;;;;;;;13.00;11.70;;;23.20;99.90;;;;;;4976016;28;20482;-63
2021/06/04 15:43:34;;;;;;;13.50;12.50;;;23.20;99.90;;;;;;4976882;28;20582;-63
2021/06/04 15:46:01;;;;;;;13.90;12.67;;;23.30;99.90;;;;;;4976741;28;20537;-63
2021/06/04 15:48:28;;;;;;;13.43;12.30;;;23.40;99.90;;;;;;4977188;28;20454;-64
2021/06/04 15:50:55;;;;;;;10.63;9.47;;;23.40;99.90;;;;;;4976975;28;20478;-63
2021/06/04 15:53:24;;;;;;;8.60;8.00;;;23.30;99.90;;;;;;4976734;28;20455;-63
2021/06/04 15:55:50;;;;;;;8.73;8.03;;;23.40;99.90;;;;;;4976653;28;20469;-62
2021/06/04 15:58:17;;;;;;;8.47;7.10;;;23.50;99.90;;;;;;4976257;28;20534;-63
2021/06/04 16:00:43;;;;;;;7.67;7.07;;;23.50;99.90;;;;;;4976427;28;20487;-63
2021/06/04 16:03:10;;;;;;;7.43;6.73;;;23.50;99.90;;;;;;4976699;28;20509;-64
2021/06/04 16:05:41;;;;;;;8.47;7.30;;;23.40;99.90;;;;;;4976304;28;21027;-63
2021/06/04 16:08:08;;;;;;;7.63;7.03;;;23.40;99.90;;;;;;4976868;28;20439;-64
2021/06/04 16:10:36;;;;;;;7.40;6.70;;;23.40;99.90;;;;;;4976472;28;20454;-64
2021/06/04 16:13:03;;;;;;;8.73;7.80;;;23.30;99.90;;;;;;4976314;28;20455;-63
2021/06/04 16:15:31;;;;;;;7.63;6.93;;;23.50;99.90;;;;;;4976296;28;20455;-64
2021/06/04 16:17:57;;;;;;;7.90;7.20;;;23.50;99.90;;;;;;4976277;28;20439;-64
2021/06/04 16:20:24;;;;;;;8.33;7.73;;;23.50;99.90;;;;;;4975997;28;20459;-65
2021/06/04 16:22:53;;;;;;;8.13;7.37;;;23.50;99.90;;;;;;4976186;28;20451;-65
2021/06/04 16:25:24;;;;;;;7.63;6.80;;;23.70;99.90;;;;;;4976157;28;20462;-64
2021/06/04 16:27:51;;;;;;;7.40;6.77;;;23.80;99.90;;;;;;4986312;28;20439;-65
2021/06/04 16:30:20;;;;;;;8.30;7.07;;;24.00;99.90;;;;;;4976469;28;20838;-64
2021/06/04 16:32:47;;;;;;;7.67;6.97;;;23.90;99.90;;;;;;4975852;28;20817;-64
2021/06/04 16:35:17;;;;;;;6.90;6.20;;;24.20;99.90;;;;;;4975701;28;20450;-65
2021/06/04 16:37:43;;;;;;;7.40;6.80;;;24.30;99.90;;;;;;4975944;28;20438;-63
2021/06/04 16:40:13;;;;;;;6.30;5.70;;;24.60;99.90;;;;;;4975422;28;20463;-65
2021/06/04 16:42:39;;;;;;;6.30;5.80;;;24.60;99.90;;;;;;4975848;28;20474;-64
2021/06/04 16:45:08;;;;;;;7.30;6.70;;;24.60;99.90;;;;;;4975688;28;20450;-64
2021/06/04 16:47:34;;;;;;;6.90;5.60;;;24.80;99.90;;;;;;4975513;28;20485;-65
2021/06/04 16:50:00;;;;;;;6.03;5.43;;;25.10;99.90;;;;;;4975617;28;20462;-65
2021/06/04 16:52:27;;;;;;;6.30;5.83;;;25.40;99.90;;;;;;4974767;28;20478;-64
2021/06/04 16:54:53;;;;;;;6.83;6.10;;;25.50;99.90;;;;;;4975545;28;20458;-64
2021/06/04 16:57:21;;;;;;;5.80;5.30;;;25.60;99.90;;;;;;4975441;28;20459;-64
2021/06/04 16:59:47;;;;;;;9.10;6.73;;;25.60;99.90;;;;;;4975381;28;20485;-64